createdAt,value
2023-01-31T00:01:36.327Z,16.00
2023-01-31T00:04:11.549Z,14.60
2023-01-31T00:06:44.504Z,14.05
2023-01-31T00:09:13.260Z,15.35
2023-01-31T00:11:40.484Z,14.43
2023-01-31T00:14:08.996Z,16.55
2023-01-31T00:16:37.245Z,15.82
2023-01-31T00:19:05.172Z,15.18
2023-01-31T00:21:33.192Z,13.80
2023-01-31T00:24:01.346Z,15.40
2023-01-31T00:26:31.595Z,15.68
2023-01-31T00:29:02.905Z,17.35
2023-01-31T00:31:31.574Z,16.95
2023-01-31T00:33:59.662Z,17.80
2023-01-31T00:36:32.639Z,16.42
2023-01-31T00:39:02.064Z,16.98
2023-01-31T00:41:30.660Z,17.35
2023-01-31T00:43:58.315Z,14.95
2023-01-31T00:46:25.734Z,14.15
2023-01-31T00:48:54.000Z,17.00
2023-01-31T00:51:26.351Z,16.98
2023-01-31T00:53:54.501Z,17.30
2023-01-31T00:56:26.583Z,14.90
2023-01-31T00:58:54.058Z,16.83
2023-01-31T01:01:29.184Z,17.50
2023-01-31T01:03:58.116Z,15.57
2023-01-31T01:06:25.957Z,15.88
2023-01-31T01:08:54.162Z,16.98
2023-01-31T01:11:24.223Z,17.23
2023-01-31T01:13:52.562Z,14.48
2023-01-31T01:16:28.775Z,14.88
2023-01-31T01:18:56.292Z,17.35
2023-01-31T01:21:25.920Z,11.50
2023-01-31T01:23:55.610Z,14.65
2023-01-31T01:26:28.705Z,7.78
2023-01-31T01:28:57.596Z,14.35
2023-01-31T01:31:30.549Z,15.30
2023-01-31T01:34:07.795Z,17.50
2023-01-31T01:36:37.253Z,14.32
2023-01-31T01:39:09.317Z,13.90
2023-01-31T01:41:37.812Z,14.52
2023-01-31T01:44:43.794Z,15.10
2023-01-31T01:47:42.806Z,13.63
2023-01-31T01:50:17.374Z,13.18
2023-01-31T01:53:18.587Z,14.63
2023-01-31T01:55:51.596Z,16.38
2023-01-31T01:58:30.143Z,15.25
2023-01-31T02:00:58.427Z,14.23
2023-01-31T02:03:27.328Z,16.05
2023-01-31T02:05:58.223Z,14.68
2023-01-31T02:08:30.192Z,14.90
2023-01-31T02:11:28.543Z,15.88
2023-01-31T02:14:08.817Z,14.98
2023-01-31T02:16:37.212Z,16.52
2023-01-31T02:19:11.199Z,15.68
2023-01-31T02:21:53.556Z,14.65
2023-01-31T02:24:48.376Z,18.00
2023-01-31T02:27:48.996Z,17.02
2023-01-31T02:30:35.907Z,14.60
2023-01-31T02:33:14.140Z,14.90
2023-01-31T02:35:55.112Z,17.35
2023-01-31T02:38:56.645Z,16.27
2023-01-31T02:41:52.340Z,15.32
2023-01-31T02:45:00.181Z,15.80
2023-01-31T02:47:48.546Z,18.25
2023-01-31T02:50:31.345Z,18.98
2023-01-31T02:53:00.321Z,16.92
2023-01-31T02:55:52.296Z,16.33
2023-01-31T02:58:21.091Z,15.95
2023-01-31T03:00:49.846Z,15.60
2023-01-31T03:03:25.158Z,16.38
2023-01-31T03:06:11.176Z,17.25
2023-01-31T03:08:40.640Z,14.10
2023-01-31T03:11:09.571Z,15.95
2023-01-31T03:13:58.492Z,16.58
2023-01-31T03:19:23.399Z,14.85
2023-01-31T03:22:02.811Z,15.43
2023-01-31T03:24:31.168Z,15.63
2023-01-31T03:27:02.699Z,14.85
2023-01-31T03:29:34.587Z,15.57
2023-01-31T03:32:26.748Z,17.50
2023-01-31T03:34:54.727Z,17.60
2023-01-31T03:37:53.752Z,17.98
2023-01-31T03:40:33.569Z,18.80
2023-01-31T03:43:19.417Z,17.13
2023-01-31T03:45:53.258Z,15.98
2023-01-31T03:48:22.848Z,18.23
2023-01-31T03:50:54.899Z,16.58
2023-01-31T03:53:46.727Z,16.45
2023-01-31T03:56:21.502Z,17.80
2023-01-31T03:58:57.440Z,18.27
2023-01-31T04:01:28.650Z,17.08
2023-01-31T04:04:01.402Z,17.40
2023-01-31T04:06:28.885Z,18.58
2023-01-31T04:08:56.776Z,18.38
2023-01-31T04:11:27.717Z,17.83
2023-01-31T04:13:55.143Z,18.55
2023-01-31T04:16:23.605Z,17.73
2023-01-31T04:18:52.004Z,14.80
2023-01-31T04:21:19.014Z,18.95
2023-01-31T04:23:46.680Z,18.88
2023-01-31T04:26:13.704Z,18.42
2023-01-31T04:28:41.544Z,20.75
2023-01-31T04:31:08.834Z,20.08
2023-01-31T04:33:36.696Z,19.25
2023-01-31T04:36:04.631Z,22.25
2023-01-31T04:38:33.963Z,20.92
2023-01-31T04:41:01.651Z,18.48
2023-01-31T04:43:29.330Z,19.25
2023-01-31T04:45:56.307Z,19.38
2023-01-31T04:48:25.738Z,18.30
2023-01-31T04:50:52.854Z,22.05
2023-01-31T04:53:22.230Z,20.65
2023-01-31T04:55:49.215Z,21.73
2023-01-31T04:58:17.740Z,20.15
2023-01-31T05:00:45.143Z,20.55
2023-01-31T05:03:13.348Z,21.90
2023-01-31T05:05:45.478Z,22.92
2023-01-31T05:08:30.585Z,22.00
2023-01-31T05:11:02.906Z,23.23
2023-01-31T05:13:32.792Z,22.65
2023-01-31T05:16:11.248Z,25.88
2023-01-31T05:18:39.339Z,19.80
2023-01-31T05:21:08.116Z,21.42
2023-01-31T05:23:36.065Z,21.98
2023-01-31T05:26:04.708Z,23.73
2023-01-31T05:28:31.838Z,24.77
2023-01-31T05:31:06.728Z,24.42
2023-01-31T05:33:35.136Z,23.67
2023-01-31T05:36:02.576Z,23.73
2023-01-31T05:38:40.021Z,22.48
2023-01-31T05:41:07.833Z,21.33
2023-01-31T05:43:36.471Z,24.23
2023-01-31T05:46:06.961Z,23.40
2023-01-31T05:48:37.050Z,20.05
2023-01-31T05:51:04.897Z,26.55
2023-01-31T05:53:32.392Z,24.83
2023-01-31T05:56:00.347Z,24.13
2023-01-31T05:58:27.452Z,23.50
2023-01-31T06:01:01.057Z,24.65
2023-01-31T06:03:28.687Z,22.73
2023-01-31T06:05:57.416Z,24.00
2023-01-31T06:08:25.101Z,22.35
2023-01-31T06:10:52.839Z,27.17
2023-01-31T06:13:19.867Z,23.73
2023-01-31T06:15:51.233Z,23.48
2023-01-31T06:18:18.988Z,25.27
2023-01-31T06:20:49.311Z,24.48
2023-01-31T06:23:16.476Z,23.00
2023-01-31T06:25:43.830Z,24.70
2023-01-31T06:28:13.324Z,26.50
2023-01-31T06:30:40.780Z,29.90
2023-01-31T06:33:07.853Z,41.83
2023-01-31T06:35:35.994Z,35.63
2023-01-31T06:38:03.257Z,38.90
2023-01-31T06:43:13.144Z,43.35
2023-01-31T06:45:43.171Z,46.25
2023-01-31T06:48:10.695Z,59.13
2023-01-31T06:50:38.372Z,87.15
2023-01-31T06:53:05.443Z,97.82
2023-01-31T06:55:32.797Z,47.42
2023-01-31T06:58:00.216Z,45.58
2023-01-31T07:00:27.641Z,45.47
2023-01-31T07:02:56.015Z,45.45
2023-01-31T07:05:24.423Z,45.50
2023-01-31T07:07:51.423Z,44.75
2023-01-31T07:10:18.883Z,46.05
2023-01-31T07:12:46.368Z,43.63
2023-01-31T07:15:13.825Z,40.75
2023-01-31T07:17:40.837Z,38.80
2023-01-31T07:20:09.013Z,38.63
2023-01-31T07:22:36.301Z,36.90
2023-01-31T07:25:03.849Z,37.45
2023-01-31T07:27:32.894Z,38.25
2023-01-31T07:30:14.979Z,31.20
2023-01-31T07:32:42.465Z,36.38
2023-01-31T07:35:09.983Z,33.28
2023-01-31T07:37:38.262Z,41.55
2023-01-31T07:40:06.151Z,43.55
2023-01-31T07:42:33.899Z,36.78
2023-01-31T07:45:16.901Z,36.13
2023-01-31T07:47:48.552Z,37.28
2023-01-31T07:50:15.667Z,35.13
2023-01-31T07:52:43.103Z,33.80
2023-01-31T07:55:10.393Z,28.35
2023-01-31T07:57:37.741Z,34.40
2023-01-31T08:03:35.374Z,35.47
2023-01-31T08:06:14.072Z,38.92
2023-01-31T08:09:11.251Z,36.05
2023-01-31T08:11:38.309Z,33.03
2023-01-31T08:14:08.888Z,37.33
2023-01-31T08:16:40.978Z,36.17
2023-01-31T08:19:11.314Z,37.72
2023-01-31T08:24:35.234Z,44.33
2023-01-31T08:27:04.873Z,41.90
2023-01-31T08:29:36.728Z,38.72
2023-01-31T08:32:09.731Z,47.10
2023-01-31T08:34:38.595Z,48.00
2023-01-31T08:37:06.484Z,47.58
2023-01-31T08:39:36.314Z,45.22
2023-01-31T08:42:03.725Z,34.85
2023-01-31T08:44:43.422Z,40.80
2023-01-31T08:47:10.883Z,27.42
2023-01-31T08:49:39.275Z,21.30
2023-01-31T08:52:06.614Z,19.33
2023-01-31T08:54:33.753Z,19.95
2023-01-31T08:59:43.621Z,16.02
2023-01-31T09:02:11.332Z,15.13
2023-01-31T09:04:41.895Z,16.55
2023-01-31T09:07:08.869Z,14.43
2023-01-31T09:09:36.293Z,13.95
2023-01-31T09:12:04.910Z,12.68
2023-01-31T09:14:32.531Z,9.20
2023-01-31T09:16:59.643Z,11.77
2023-01-31T09:19:27.125Z,12.15
2023-01-31T09:21:54.134Z,10.68
2023-01-31T09:24:21.437Z,11.65
2023-01-31T09:26:51.432Z,11.82
2023-01-31T09:29:18.934Z,13.40
2023-01-31T09:31:45.958Z,12.93
2023-01-31T09:34:25.000Z,15.63
2023-01-31T09:39:36.557Z,13.52
2023-01-31T09:42:27.714Z,11.95
2023-01-31T09:45:02.963Z,12.02
2023-01-31T09:47:45.535Z,10.95
2023-01-31T09:50:19.192Z,13.40
2023-01-31T09:52:46.314Z,11.25
2023-01-31T09:55:33.802Z,9.15
2023-01-31T09:58:16.452Z,8.32
2023-01-31T10:00:51.678Z,9.52
2023-01-31T10:03:57.204Z,9.07
2023-01-31T10:06:57.120Z,9.13
2023-01-31T10:09:56.339Z,9.45
2023-01-31T10:12:33.547Z,8.82
2023-01-31T10:15:06.336Z,8.15
2023-01-31T10:17:40.191Z,10.25
2023-01-31T10:20:18.866Z,9.75
2023-01-31T10:23:00.745Z,10.27
2023-01-31T10:25:44.445Z,9.75
2023-01-31T10:28:39.851Z,8.80
2023-01-31T10:31:39.273Z,8.98
2023-01-31T10:34:27.069Z,9.20
2023-01-31T10:37:21.879Z,9.77
2023-01-31T10:39:51.432Z,7.20
2023-01-31T10:48:33.383Z,7.85
2023-01-31T10:51:36.899Z,5.95
2023-01-31T10:54:45.241Z,7.10
2023-01-31T10:57:12.404Z,7.22
2023-01-31T10:59:46.580Z,7.35
2023-01-31T11:02:32.055Z,7.63
2023-01-31T11:05:00.835Z,7.13
2023-01-31T11:07:32.096Z,6.10
2023-01-31T11:09:59.621Z,6.30
2023-01-31T11:12:54.311Z,8.13
2023-01-31T11:17:53.212Z,7.68
2023-01-31T11:20:37.832Z,9.50
2023-01-31T11:23:07.036Z,7.80
2023-01-31T11:25:35.039Z,7.95
2023-01-31T11:28:05.547Z,8.38
2023-01-31T11:30:38.796Z,5.20
2023-01-31T11:33:07.116Z,7.10
2023-01-31T11:35:52.869Z,8.95
2023-01-31T11:38:23.604Z,8.32
2023-01-31T11:40:50.665Z,7.68
2023-01-31T11:43:21.132Z,6.93
2023-01-31T11:45:56.557Z,7.00
2023-01-31T11:51:00.808Z,8.00
2023-01-31T11:53:46.968Z,6.20
2023-01-31T11:56:22.168Z,5.80
2023-01-31T11:58:55.137Z,5.35
2023-01-31T12:01:24.915Z,6.40
2023-01-31T12:04:02.562Z,7.32
2023-01-31T12:06:38.794Z,6.95
2023-01-31T12:09:20.615Z,7.65
2023-01-31T12:11:59.232Z,6.22
2023-01-31T12:14:41.045Z,5.07
2023-01-31T12:17:15.609Z,5.82
2023-01-31T12:19:48.679Z,7.43
2023-01-31T12:22:25.489Z,5.40
2023-01-31T12:25:28.369Z,7.45
2023-01-31T12:28:31.489Z,6.28
2023-01-31T12:31:08.168Z,6.55
2023-01-31T12:34:08.509Z,5.88
2023-01-31T12:37:20.614Z,5.53
2023-01-31T12:40:11.905Z,7.55
2023-01-31T12:43:22.060Z,7.05
2023-01-31T12:46:03.372Z,6.70
2023-01-31T12:48:54.816Z,8.40
2023-01-31T12:51:54.913Z,6.07
2023-01-31T12:54:50.032Z,7.05
2023-01-31T12:57:54.827Z,7.32
2023-01-31T13:00:48.085Z,7.82
2023-01-31T13:03:38.991Z,7.70
2023-01-31T13:06:21.701Z,6.75
2023-01-31T13:09:07.773Z,8.02
2023-01-31T13:11:43.035Z,7.18
2023-01-31T13:14:20.488Z,7.10
2023-01-31T13:16:53.165Z,6.38
2023-01-31T13:19:26.516Z,6.25
2023-01-31T13:22:05.114Z,7.28
2023-01-31T13:24:41.290Z,7.55
2023-01-31T13:27:24.746Z,6.93
2023-01-31T13:29:59.397Z,8.23
2023-01-31T13:32:45.220Z,13.48
2023-01-31T13:35:24.979Z,9.07
2023-01-31T13:38:06.216Z,9.23
2023-01-31T13:40:38.639Z,6.78
2023-01-31T13:43:14.447Z,7.82
2023-01-31T13:45:53.599Z,6.60
2023-01-31T13:48:55.987Z,8.15
2023-01-31T13:51:46.768Z,7.00
2023-01-31T13:54:27.078Z,7.82
2023-01-31T13:56:57.168Z,8.13
2023-01-31T13:59:29.238Z,7.30
2023-01-31T14:01:59.695Z,8.57
2023-01-31T14:04:29.608Z,8.35
2023-01-31T14:06:58.714Z,8.85
2023-01-31T14:09:30.330Z,9.10
2023-01-31T14:12:21.943Z,8.68
2023-01-31T14:14:57.002Z,8.05
2023-01-31T14:17:24.168Z,9.73
2023-01-31T14:19:51.436Z,9.85
2023-01-31T14:22:36.582Z,10.75
2023-01-31T14:25:14.979Z,8.50
2023-01-31T14:27:57.380Z,9.35
2023-01-31T14:30:35.433Z,8.10
2023-01-31T14:33:11.949Z,9.50
2023-01-31T14:36:01.283Z,7.32
2023-01-31T14:41:20.086Z,9.80
2023-01-31T14:43:50.013Z,10.65
2023-01-31T14:46:35.763Z,9.38
2023-01-31T14:49:28.534Z,8.88
2023-01-31T14:52:14.214Z,8.50
2023-01-31T14:54:47.613Z,7.88
2023-01-31T14:57:20.586Z,9.52
2023-01-31T14:59:47.745Z,8.20
2023-01-31T15:02:33.846Z,6.78
2023-01-31T15:05:07.511Z,8.45
2023-01-31T15:07:35.116Z,9.00
2023-01-31T15:10:04.820Z,10.02
2023-01-31T15:12:55.448Z,10.55
2023-01-31T15:15:25.266Z,9.27
2023-01-31T15:17:54.589Z,9.00
2023-01-31T15:20:41.337Z,9.95
2023-01-31T15:23:23.849Z,8.35
2023-01-31T15:25:51.975Z,10.85
2023-01-31T15:28:22.902Z,12.27
2023-01-31T15:30:51.356Z,14.18
2023-01-31T15:33:28.412Z,8.35
2023-01-31T15:36:04.190Z,7.50
2023-01-31T15:38:51.923Z,8.77
2023-01-31T15:41:18.966Z,9.52
2023-01-31T15:43:47.465Z,10.32
2023-01-31T15:46:22.439Z,9.40
2023-01-31T15:48:50.545Z,6.75
2023-01-31T15:51:18.689Z,8.25
2023-01-31T15:54:00.194Z,7.43
2023-01-31T15:56:29.085Z,10.43
2023-01-31T15:58:58.806Z,7.50
2023-01-31T16:01:32.648Z,9.77
2023-01-31T16:04:01.158Z,9.07
2023-01-31T16:06:34.402Z,9.32
2023-01-31T16:09:05.195Z,10.30
2023-01-31T16:11:34.660Z,7.93
2023-01-31T16:14:05.327Z,9.30
2023-01-31T16:16:36.033Z,10.10
2023-01-31T16:19:05.605Z,10.63
2023-01-31T16:24:20.296Z,8.38
2023-01-31T16:27:01.397Z,9.95
2023-01-31T16:29:39.951Z,9.35
2023-01-31T16:32:32.035Z,9.98
2023-01-31T16:35:00.878Z,8.50
2023-01-31T16:37:38.155Z,9.48
2023-01-31T16:40:17.741Z,10.38
2023-01-31T16:42:45.321Z,9.60
2023-01-31T16:45:29.716Z,9.27
2023-01-31T16:48:20.995Z,8.57
2023-01-31T16:51:52.413Z,10.27
2023-01-31T16:54:42.825Z,7.63
2023-01-31T16:57:38.172Z,9.60
2023-01-31T17:03:25.874Z,8.93
2023-01-31T17:05:53.148Z,9.60
2023-01-31T17:08:22.347Z,9.13
2023-01-31T17:10:51.781Z,11.50
2023-01-31T17:13:37.769Z,9.70
2023-01-31T17:16:24.278Z,8.80
2023-01-31T17:18:53.125Z,10.25
2023-01-31T17:21:22.362Z,10.07
2023-01-31T17:23:50.307Z,10.23
2023-01-31T17:26:23.946Z,11.23
2023-01-31T17:29:02.648Z,10.02
2023-01-31T17:31:31.853Z,10.15
2023-01-31T17:33:59.352Z,10.98
2023-01-31T17:36:28.969Z,10.95
2023-01-31T17:38:58.982Z,10.68
2023-01-31T17:41:26.127Z,10.00
2023-01-31T17:43:53.632Z,10.88
2023-01-31T17:46:21.030Z,9.80
2023-01-31T17:48:56.020Z,10.90
2023-01-31T17:51:24.791Z,10.82
2023-01-31T17:53:53.201Z,11.95
2023-01-31T17:56:20.602Z,12.52
2023-01-31T17:58:49.630Z,10.25
2023-01-31T18:01:23.823Z,10.43
2023-01-31T18:03:54.246Z,10.27
2023-01-31T18:06:21.375Z,13.10
2023-01-31T18:08:49.274Z,11.32
2023-01-31T18:11:17.602Z,11.55
2023-01-31T18:13:48.114Z,11.27
2023-01-31T18:16:18.397Z,10.85
2023-01-31T18:18:47.552Z,10.52
2023-01-31T18:21:18.815Z,9.52
2023-01-31T18:23:54.707Z,7.22
2023-01-31T18:26:24.205Z,7.88
2023-01-31T18:28:57.763Z,10.05
2023-01-31T18:31:25.375Z,6.57
2023-01-31T18:33:57.062Z,8.30
2023-01-31T18:36:24.084Z,9.07
2023-01-31T18:38:51.682Z,8.15
2023-01-31T18:41:41.548Z,7.18
2023-01-31T18:44:08.943Z,7.75
2023-01-31T18:46:36.096Z,5.78
2023-01-31T18:49:03.592Z,7.97
2023-01-31T18:51:30.710Z,7.75
2023-01-31T18:53:59.809Z,6.18
2023-01-31T18:56:34.760Z,7.53
2023-01-31T18:59:02.146Z,6.05
2023-01-31T19:01:29.208Z,6.88
2023-01-31T19:03:58.534Z,6.43
2023-01-31T19:06:30.600Z,7.90
2023-01-31T19:09:16.339Z,6.95
2023-01-31T19:11:43.695Z,7.38
2023-01-31T19:14:14.537Z,7.50
2023-01-31T19:16:43.780Z,5.47
2023-01-31T19:25:11.174Z,8.98
2023-01-31T19:27:40.152Z,6.55
2023-01-31T19:30:12.445Z,6.70
2023-01-31T19:33:00.653Z,6.50
2023-01-31T19:35:39.957Z,5.70
2023-01-31T19:38:07.599Z,8.18
2023-01-31T19:40:34.965Z,7.53
2023-01-31T19:43:02.008Z,6.93
2023-01-31T19:45:29.718Z,7.65
2023-01-31T19:48:00.933Z,6.78
2023-01-31T19:50:29.478Z,7.20
2023-01-31T19:52:56.689Z,7.13
2023-01-31T19:55:26.728Z,7.03
2023-01-31T19:57:53.832Z,4.60
2023-01-31T20:00:22.132Z,6.28
2023-01-31T20:02:52.052Z,6.57
2023-01-31T20:05:19.973Z,5.68
2023-01-31T20:07:50.430Z,8.30
2023-01-31T20:10:18.041Z,7.75
2023-01-31T20:12:48.300Z,7.50
2023-01-31T20:15:15.706Z,7.45
2023-01-31T20:17:42.674Z,6.32
2023-01-31T20:20:10.638Z,7.25
2023-01-31T20:22:38.064Z,7.10
2023-01-31T20:25:05.950Z,5.70
2023-01-31T20:27:33.983Z,5.88
2023-01-31T20:30:01.676Z,6.63
2023-01-31T20:32:28.724Z,6.97
2023-01-31T20:34:56.259Z,6.30
2023-01-31T20:37:23.838Z,7.82
2023-01-31T20:39:51.582Z,7.63
2023-01-31T20:42:22.481Z,5.93
2023-01-31T20:44:51.295Z,7.72
2023-01-31T20:47:18.298Z,8.05
2023-01-31T20:49:48.411Z,7.38
2023-01-31T20:52:18.069Z,7.15
2023-01-31T20:54:49.572Z,6.85
2023-01-31T20:57:18.744Z,9.30
2023-01-31T20:59:49.101Z,7.55
2023-01-31T21:02:16.744Z,6.80
2023-01-31T21:04:45.873Z,6.72
2023-01-31T21:07:12.973Z,6.18
2023-01-31T21:09:40.337Z,8.05
2023-01-31T21:12:08.420Z,6.40
2023-01-31T21:14:35.715Z,6.20
2023-01-31T21:17:06.805Z,7.00
2023-01-31T21:19:36.031Z,6.10
2023-01-31T21:22:03.167Z,7.03
2023-01-31T21:24:31.842Z,8.18
2023-01-31T21:26:59.092Z,5.80
2023-01-31T21:29:29.445Z,6.45
2023-01-31T21:32:01.436Z,5.70
2023-01-31T21:34:28.876Z,7.35
2023-01-31T21:37:00.041Z,5.65
2023-01-31T21:39:27.686Z,7.22
2023-01-31T21:42:13.871Z,7.03
2023-01-31T21:44:43.127Z,6.63
2023-01-31T21:47:11.375Z,6.95
2023-01-31T21:49:40.037Z,4.57
2023-01-31T21:52:07.554Z,5.82
2023-01-31T21:54:35.787Z,6.90
2023-01-31T21:57:03.262Z,6.05
2023-01-31T21:59:33.528Z,6.13
2023-01-31T22:02:00.559Z,5.95
2023-01-31T22:06:57.281Z,5.93
2023-01-31T22:09:24.791Z,5.50
2023-01-31T22:11:56.399Z,5.82
2023-01-31T22:14:23.856Z,4.95
2023-01-31T22:17:01.283Z,5.28
2023-01-31T22:19:28.741Z,3.22
2023-01-31T22:21:55.945Z,5.63
2023-01-31T22:24:25.942Z,6.10
2023-01-31T22:26:53.118Z,5.35
2023-01-31T22:29:20.704Z,5.03
2023-01-31T22:31:48.090Z,5.97
2023-01-31T22:34:21.488Z,6.53
2023-01-31T22:36:53.606Z,5.75
2023-01-31T22:39:21.128Z,5.38
2023-01-31T22:41:48.271Z,6.47
2023-01-31T22:44:18.539Z,5.53
2023-01-31T22:46:47.098Z,4.93
2023-01-31T22:49:15.645Z,5.45
2023-01-31T22:51:45.375Z,5.47
2023-01-31T22:54:14.712Z,4.95
2023-01-31T22:56:42.386Z,5.07
2023-01-31T22:59:10.294Z,3.97
2023-01-31T23:01:39.479Z,4.07
2023-01-31T23:04:10.056Z,5.75
2023-01-31T23:06:38.135Z,3.80
2023-01-31T23:09:06.006Z,4.72
2023-01-31T23:11:33.996Z,3.90
2023-01-31T23:14:01.668Z,4.63
2023-01-31T23:16:47.325Z,4.60
2023-01-31T23:19:16.425Z,5.35
2023-01-31T23:21:44.646Z,5.38
2023-01-31T23:24:14.835Z,3.88
2023-01-31T23:26:43.974Z,5.55
2023-01-31T23:31:38.674Z,4.32
2023-01-31T23:34:07.727Z,5.13
2023-01-31T23:36:35.293Z,4.70
2023-01-31T23:39:02.775Z,5.05
2023-01-31T23:41:29.796Z,5.13
2023-01-31T23:43:57.094Z,4.40
2023-01-31T23:46:24.212Z,4.43
2023-01-31T23:48:51.597Z,4.65
2023-01-31T23:51:18.693Z,3.50
2023-01-31T23:53:46.035Z,4.32
2023-01-31T23:56:13.412Z,4.35
2023-01-31T23:58:40.731Z,4.20
